Terminal Aerodrome Forecast
Issued by NWS

Home | Current Version | Previous Version | Text Only | Print | Product List | Glossary On
Versions: 1 2 3 4 5 6 7 8 9 10 11 12 13 14 15 16 17 18 19 20 21 22 23 24 25 26
000
FTUS45 KBOU 231221 AAA
TAFBJC
TAF AMD
KBJC 231221Z 2312/2412 20011KT P6SM FEW120 BKN180
     FM231300 28010KT P6SM FEW120 BKN220
     FM231500 29015KT P6SM SCT080 BKN150
     FM231800 30015G25KT P6SM SCT080 BKN140
     FM240100 34010KT P6SM SCT140 BKN200
     FM240600 28010KT P6SM FEW200=

USA.gov is the U.S. government's official web portal to all federal, state and local government web resources and services.